Time;durP1;ratioP1;P1;durP2;ratioP2;P2;SDS_P1;SDS_P2;PMS_P1;PMS_P2;Temp;Humidity;BMP_temperature;BMP_pressure;BME280_temperature;BME280_humidity;BME280_pressure;Samples;Min_cycle;Max_cycle;Signal;HPM_P1;HPM_P2
2023/01/12 00:02:11;;;;;;;;;4.00;2.00;;;;;12.03;100.00;101659.03;5094910;27;45394;-78
2023/01/12 00:04:37;;;;;;;;;9.33;3.67;;;;;12.01;100.00;101642.81;5078927;27;45456;-78
2023/01/12 00:07:06;;;;;;;;;4.00;2.67;;;;;11.93;100.00;101647.22;5097472;27;45342;-79
2023/01/12 00:09:31;;;;;;;;;6.00;1.67;;;;;11.87;100.00;101645.91;5101136;27;45344;-78
2023/01/12 00:11:57;;;;;;;;;8.67;5.00;;;;;11.97;100.00;101630.50;5089528;27;45831;-80
2023/01/12 00:14:22;;;;;;;;;2.00;1.67;;;;;11.96;100.00;101622.44;5100148;27;45680;-78
2023/01/12 00:16:48;;;;;;;;;4.33;2.67;;;;;11.97;100.00;101632.34;5077154;27;46335;-79
2023/01/12 00:19:14;;;;;;;;;7.33;2.67;;;;;11.78;100.00;101608.59;5091151;27;45412;-79
2023/01/12 00:22:11;;;;;;;;;6.00;4.00;;;;;11.92;100.00;101610.09;5076156;27;45457;-79
2023/01/12 00:24:39;;;;;;;;;2.67;1.33;;;;;11.97;100.00;101607.84;5079907;27;45385;-79
2023/01/12 00:27:08;;;;;;;;;8.00;6.33;;;;;11.90;100.00;101615.69;5092561;27;46232;-80
2023/01/12 00:29:34;;;;;;;;;5.00;5.00;;;;;11.91;100.00;101611.06;5077712;27;45429;-79
2023/01/12 00:31:59;;;;;;;;;3.00;1.00;;;;;11.93;100.00;101618.13;5096092;27;45582;-79
2023/01/12 00:34:25;;;;;;;;;5.67;3.00;;;;;11.91;100.00;101608.34;5100157;27;45550;-79
2023/01/12 00:36:50;;;;;;;;;5.00;2.67;;;;;11.95;100.00;101597.06;5084656;27;46580;-79
2023/01/12 00:39:16;;;;;;;;;1.00;0.00;;;;;12.07;100.00;101608.72;5088199;27;45520;-79
2023/01/12 00:47:13;;;;;;;;;6.33;3.33;;;;;12.02;100.00;101608.28;5089037;27;45479;-82
2023/01/12 00:49:40;;;;;;;;;9.00;4.00;;;;;12.03;100.00;101596.38;5099051;27;46304;-81
2023/01/12 00:52:06;;;;;;;;;2.00;1.33;;;;;12.10;100.00;101578.50;5087884;27;45417;-81
2023/01/12 00:54:33;;;;;;;;;7.67;3.33;;;;;11.90;100.00;101553.06;5088079;27;45596;-81
2023/01/12 00:56:59;;;;;;;;;6.67;3.00;;;;;11.95;100.00;101549.91;5097289;27;45574;-81
2023/01/12 00:59:24;;;;;;;;;3.00;2.00;;;;;11.93;100.00;101541.00;5076212;27;45590;-80
2023/01/12 01:01:49;;;;;;;;;6.00;2.33;;;;;12.00;100.00;101523.97;5073072;27;45449;-81
2023/01/12 01:04:15;;;;;;;;;5.00;2.33;;;;;11.97;100.00;101531.59;5068654;28;45651;-81
2023/01/12 01:06:40;;;;;;;;;9.67;3.00;;;;;11.95;100.00;101550.78;5091889;27;47338;-81
2023/01/12 01:09:06;;;;;;;;;2.00;2.00;;;;;11.99;100.00;101540.44;5101430;27;45370;-81
2023/01/12 01:11:33;;;;;;;;;3.00;2.00;;;;;12.01;100.00;101546.63;5094015;27;46515;-81
2023/01/12 01:13:59;;;;;;;;;5.33;3.33;;;;;11.94;100.00;101553.63;5079491;28;45332;-81
2023/01/12 01:16:25;;;;;;;;;5.00;2.33;;;;;11.92;100.00;101544.72;5091348;27;46023;-81
2023/01/12 01:18:50;;;;;;;;;4.00;2.33;;;;;11.92;100.00;101551.03;5085809;27;45424;-80
2023/01/12 01:21:17;;;;;;;;;1.67;1.67;;;;;11.74;100.00;101551.81;5100841;27;45452;-80
2023/01/12 01:23:43;;;;;;;;;3.67;2.00;;;;;11.86;100.00;101539.84;5097147;27;45360;-80
2023/01/12 01:26:12;;;;;;;;;4.67;3.00;;;;;11.91;100.00;101564.78;5082646;27;47169;-81
2023/01/12 01:28:38;;;;;;;;;3.00;3.00;;;;;11.92;100.00;101542.00;5095898;27;45258;-81
2023/01/12 01:31:06;;;;;;;;;2.00;2.00;;;;;11.84;100.00;101520.91;5078657;27;45476;-81
2023/01/12 01:33:31;;;;;;;;;3.67;2.00;;;;;11.92;100.00;101536.56;5095167;27;45527;-80
2023/01/12 01:35:57;;;;;;;;;6.00;2.00;;;;;11.89;100.00;101534.13;5081748;27;46515;-81
2023/01/12 01:38:23;;;;;;;;;5.33;3.00;;;;;11.81;100.00;101540.25;5076819;27;45485;-81
2023/01/12 01:40:48;;;;;;;;;5.67;2.33;;;;;11.88;100.00;101544.16;5097030;27;45641;-80
2023/01/12 01:43:15;;;;;;;;;3.00;2.00;;;;;11.92;100.00;101550.19;5105688;27;45383;-80
2023/01/12 01:45:44;;;;;;;;;3.33;1.00;;;;;11.90;100.00;101533.13;5075046;27;47929;-81
2023/01/12 01:48:13;;;;;;;;;6.33;3.33;;;;;11.88;100.00;101533.28;5096227;27;46305;-81
2023/01/12 01:50:45;;;;;;;;;7.33;3.67;;;;;11.86;100.00;101518.06;5094214;27;45434;-81
2023/01/12 01:53:19;;;;;;;;;5.33;3.00;;;;;11.93;100.00;101514.66;5104032;27;45349;-81
2023/01/12 01:55:58;;;;;;;;;3.67;3.00;;;;;11.84;100.00;101514.59;5083288;27;47582;-81
2023/01/12 01:58:38;;;;;;;;;2.00;2.00;;;;;11.86;100.00;101523.50;5082258;27;45506;-81
2023/01/12 02:01:05;;;;;;;;;7.00;4.00;;;;;11.92;100.00;101531.13;5101146;27;45484;-81
2023/01/12 02:03:31;;;;;;;;;6.33;2.67;;;;;11.81;100.00;101536.69;5101526;27;45414;-81
2023/01/12 02:05:57;;;;;;;;;4.67;1.67;;;;;11.91;100.00;101529.38;5097372;27;45445;-81
2023/01/12 02:08:22;;;;;;;;;1.67;1.67;;;;;11.90;100.00;101541.31;5083911;27;45877;-81
2023/01/12 02:10:50;;;;;;;;;3.33;1.33;;;;;11.95;100.00;101529.00;5085732;27;45512;-81
2023/01/12 02:16:29;;;;;;;;;5.00;3.33;;;;;11.97;100.00;101542.47;5092982;27;45495;-81
2023/01/12 02:19:16;;;;;;;;;4.00;2.00;;;;;11.92;100.00;101526.53;5095552;27;45717;-81
2023/01/12 02:22:00;;;;;;;;;2.00;0.00;;;;;11.85;100.00;101519.91;5090888;27;45417;-81
2023/01/12 02:24:57;;;;;;;;;2.00;2.00;;;;;11.93;100.00;101525.53;5084729;27;45503;-81
2023/01/12 02:28:02;;;;;;;;;5.00;3.00;;;;;12.04;100.00;101517.28;5062303;27;46539;-81
2023/01/12 02:31:17;;;;;;;;;2.00;2.00;;;;;12.16;100.00;101520.72;5089088;27;45229;-81
2023/01/12 02:34:04;;;;;;;;;3.33;2.00;;;;;12.17;100.00;101513.41;5042178;28;45247;-81
2023/01/12 02:37:06;;;;;;;;;4.00;2.67;;;;;12.20;100.00;101511.25;5053722;28;45392;-80
2023/01/12 02:39:41;;;;;;;;;4.67;2.00;;;;;12.10;100.00;101494.06;5077565;27;47172;-80
2023/01/12 02:42:41;;;;;;;;;3.67;2.00;;;;;12.08;100.00;101483.28;5098809;27;45354;-80
2023/01/12 02:45:38;;;;;;;;;6.00;2.00;;;;;12.12;100.00;101481.16;5089730;27;45555;-81
2023/01/12 02:48:15;;;;;;;;;3.67;2.00;;;;;12.14;100.00;101481.88;5086875;27;45443;-80
2023/01/12 02:50:50;;;;;;;;;3.67;1.00;;;;;12.11;100.00;101484.88;5093936;27;45583;-80
2023/01/12 02:53:42;;;;;;;;;2.67;2.00;;;;;12.19;100.00;101482.31;5075362;27;45440;-81
2023/01/12 02:56:10;;;;;;;;;4.33;2.00;;;;;12.16;100.00;101477.16;5061358;28;45441;-81
2023/01/12 02:58:41;;;;;;;;;1.67;1.67;;;;;12.20;100.00;101484.03;5091090;27;45298;-81
2023/01/12 03:01:09;;;;;;;;;7.67;4.00;;;;;12.26;100.00;101471.72;5100000;27;45741;-81
2023/01/12 03:03:38;;;;;;;;;2.67;1.00;;;;;12.31;100.00;101467.56;5081077;27;45274;-80
2023/01/12 03:06:05;;;;;;;;;4.00;2.00;;;;;12.27;100.00;101473.44;5100936;27;45364;-81
2023/01/12 03:08:31;;;;;;;;;3.33;2.00;;;;;12.24;100.00;101458.22;5100085;27;45500;-81
2023/01/12 03:11:16;;;;;;;;;5.33;3.67;;;;;12.40;100.00;101453.09;5099957;27;46458;-81
2023/01/12 03:13:49;;;;;;;;;3.00;1.00;;;;;12.37;100.00;101447.91;5098174;27;45305;-81
2023/01/12 03:16:20;;;;;;;;;2.00;2.00;;;;;12.34;100.00;101463.69;5100647;27;45428;-81
2023/01/12 03:18:57;;;;;;;;;4.33;1.33;;;;;12.35;100.00;101452.63;5079539;27;45460;-81
2023/01/12 03:21:29;;;;;;;;;7.33;2.00;;;;;12.43;100.00;101450.06;5094941;27;46673;-81
2023/01/12 03:24:18;;;;;;;;;4.33;1.67;;;;;12.40;100.00;101435.88;5094658;27;45365;-81
2023/01/12 03:26:51;;;;;;;;;5.00;2.00;;;;;12.48;100.00;101434.16;5074855;27;45662;-81
2023/01/12 03:29:34;;;;;;;;;7.33;3.00;;;;;12.44;100.00;101427.25;5097798;27;45379;-81
2023/01/12 03:32:00;;;;;;;;;2.33;2.00;;;;;12.41;100.00;101427.56;5095014;27;45394;-81
2023/01/12 03:34:25;;;;;;;;;5.00;2.00;;;;;12.26;100.00;101412.66;5100496;27;45254;-81
2023/01/12 03:37:18;;;;;;;;;2.00;1.33;;;;;12.28;100.00;101428.81;5091983;27;45541;-80
2023/01/12 03:39:56;;;;;;;;;2.33;2.33;;;;;12.35;100.00;101417.22;5095178;27;45484;-80
2023/01/12 03:42:30;;;;;;;;;3.00;3.00;;;;;12.32;100.00;101405.75;5100984;27;46563;-80
2023/01/12 03:45:32;;;;;;;;;2.67;2.00;;;;;12.38;100.00;101419.66;5096485;27;45375;-81
2023/01/12 03:48:25;;;;;;;;;8.00;5.00;;;;;12.38;100.00;101422.38;5095697;27;45417;-81
2023/01/12 03:50:59;;;;;;;;;6.33;0.33;;;;;12.28;100.00;101402.44;5084977;27;45544;-81
2023/01/12 03:53:25;;;;;;;;;4.00;2.00;;;;;12.31;100.00;101399.44;5073270;27;45649;-81
2023/01/12 03:55:58;;;;;;;;;2.00;1.00;;;;;12.12;100.00;101388.56;5087308;27;45612;-80
2023/01/12 03:58:24;;;;;;;;;2.33;2.00;;;;;12.20;100.00;101390.56;5090727;27;45448;-80
2023/01/12 04:00:49;;;;;;;;;1.67;1.00;;;;;12.21;100.00;101390.41;5092893;27;45479;-80
2023/01/12 04:03:16;;;;;;;;;4.00;2.00;;;;;12.13;100.00;101400.31;5102792;27;45361;-80
2023/01/12 04:05:42;;;;;;;;;0.00;0.00;;;;;12.32;100.00;101387.53;5077941;28;45281;-79
2023/01/12 04:08:10;;;;;;;;;1.67;1.67;;;;;12.37;100.00;101373.47;5097384;27;45483;-80
2023/01/12 04:10:36;;;;;;;;;3.00;1.33;;;;;12.29;100.00;101381.50;5079789;27;45483;-80
2023/01/12 04:13:01;;;;;;;;;2.00;2.00;;;;;12.33;100.00;101370.19;5081661;27;46837;-82
2023/01/12 04:15:27;;;;;;;;;2.00;2.00;;;;;12.30;100.00;101367.75;5080826;27;45892;-81
2023/01/12 04:17:52;;;;;;;;;4.33;2.00;;;;;12.28;100.00;101361.56;5080490;27;45460;-81
2023/01/12 04:20:18;;;;;;;;;2.67;2.33;;;;;12.39;100.00;101358.72;5097871;27;45278;-80
2023/01/12 04:22:44;;;;;;;;;4.33;1.33;;;;;12.36;100.00;101361.72;5093713;27;45543;-81
2023/01/12 04:25:12;;;;;;;;;2.33;2.00;;;;;12.32;100.00;101353.97;5092016;27;45261;-79
2023/01/12 04:27:45;;;;;;;;;3.00;2.67;;;;;12.39;100.00;101366.88;5089477;27;45416;-79
2023/01/12 04:30:11;;;;;;;;;4.67;2.33;;;;;12.19;100.00;101351.56;5091781;27;45528;-79
2023/01/12 04:32:36;;;;;;;;;3.33;2.00;;;;;12.28;100.00;101345.22;5098484;27;46399;-80
2023/01/12 04:35:04;;;;;;;;;5.00;4.00;;;;;12.24;100.00;101315.69;5084011;27;47777;-80
2023/01/12 04:37:32;;;;;;;;;5.67;2.00;;;;;12.21;100.00;101344.06;5083085;27;45512;-79
2023/01/12 04:39:57;;;;;;;;;3.67;2.00;;;;;12.23;100.00;101363.88;5074090;27;45789;-79
2023/01/12 04:45:07;;;;;;;;;6.00;2.67;;;;;12.45;100.00;101363.56;5100416;27;45255;-79
2023/01/12 04:47:32;;;;;;;;;2.67;2.00;;;;;12.37;100.00;101366.16;5100425;27;45476;-79
2023/01/12 04:49:58;;;;;;;;;4.00;2.00;;;;;12.51;100.00;101369.44;5077609;27;45708;-82
2023/01/12 04:52:23;;;;;;;;;6.00;3.00;;;;;12.56;100.00;101362.56;5083596;28;47036;-80
2023/01/12 04:54:48;;;;;;;;;2.67;1.00;;;;;12.51;100.00;101345.75;5085152;27;45397;-80
2023/01/12 04:57:14;;;;;;;;;1.33;1.33;;;;;12.49;100.00;101358.69;5086980;27;45299;-81
2023/01/12 04:59:39;;;;;;;;;3.00;1.00;;;;;12.57;100.00;101349.75;5092075;27;45272;-80
2023/01/12 05:02:04;;;;;;;;;1.33;1.33;;;;;12.64;100.00;101342.75;5081388;27;47724;-80
2023/01/12 05:04:30;;;;;;;;;4.33;2.67;;;;;12.55;100.00;101352.66;5087757;27;45290;-79
2023/01/12 05:06:55;;;;;;;;;5.67;3.00;;;;;12.57;100.00;101349.75;5079248;27;45388;-79
2023/01/12 05:12:04;;;;;;;;;1.67;1.67;;;;;12.58;100.00;101332.41;5097244;27;45418;-80
2023/01/12 05:14:30;;;;;;;;;2.00;1.67;;;;;12.54;100.00;101314.63;5103243;27;45320;-81
2023/01/12 05:16:55;;;;;;;;;4.00;3.00;;;;;12.61;100.00;101326.69;5099335;27;45366;-81
2023/01/12 05:19:21;;;;;;;;;1.00;1.00;;;;;12.58;100.00;101326.94;5100992;27;45147;-81
2023/01/12 05:21:46;;;;;;;;;3.33;1.33;;;;;12.66;100.00;101321.63;5091873;27;45849;-80
2023/01/12 05:24:12;;;;;;;;;4.67;3.00;;;;;12.65;100.00;101326.22;5100818;27;45237;-81
2023/01/12 05:26:37;;;;;;;;;6.33;3.33;;;;;12.71;100.00;101319.34;5073572;27;45590;-81
2023/01/12 05:29:02;;;;;;;;;2.67;2.00;;;;;12.67;100.00;101326.06;5082987;27;45486;-80
2023/01/12 05:31:28;;;;;;;;;4.00;1.00;;;;;12.67;100.00;101329.66;5078702;27;47797;-80
2023/01/12 05:33:53;;;;;;;;;2.67;1.00;;;;;12.59;100.00;101315.06;5078488;27;45327;-82
2023/01/12 05:36:19;;;;;;;;;3.00;1.00;;;;;12.71;100.00;101320.16;5102396;27;45300;-80
2023/01/12 05:38:44;;;;;;;;;4.00;1.00;;;;;12.71;100.00;101324.78;5097189;27;45381;-81
2023/01/12 05:41:11;;;;;;;;;5.00;2.67;;;;;12.67;100.00;101323.34;5093676;27;47345;-80
2023/01/12 05:43:49;;;;;;;;;1.67;1.67;;;;;12.68;100.00;101322.34;5073856;27;45459;-82
2023/01/12 05:46:16;;;;;;;;;5.00;1.67;;;;;12.68;100.00;101314.16;5100716;27;45315;-80
2023/01/12 05:48:42;;;;;;;;;4.67;2.00;;;;;12.60;100.00;101322.22;5078540;27;45256;-80
2023/01/12 05:51:09;;;;;;;;;1.33;1.00;;;;;12.62;100.00;101328.41;5078863;27;46585;-81
2023/01/12 05:53:34;;;;;;;;;3.00;1.00;;;;;12.53;100.00;101332.00;5081135;27;45356;-79
2023/01/12 05:56:16;;;;;;;;;3.33;2.00;;;;;12.57;100.00;101338.84;5100462;27;45395;-79
2023/01/12 05:58:41;;;;;;;;;5.00;2.00;;;;;12.58;100.00;101337.84;5097498;27;45348;-78
2023/01/12 06:01:10;;;;;;;;;3.00;2.00;;;;;12.64;100.00;101331.84;5101825;27;46365;-79
2023/01/12 06:03:36;;;;;;;;;5.67;2.67;;;;;12.75;100.00;101331.66;5082546;27;45353;-79
2023/01/12 06:06:02;;;;;;;;;3.33;3.00;;;;;12.72;100.00;101323.75;5098529;27;45308;-78
2023/01/12 06:08:28;;;;;;;;;2.33;2.33;;;;;12.79;100.00;101333.06;5099884;27;45413;-79
2023/01/12 06:10:53;;;;;;;;;5.33;2.00;;;;;12.76;100.00;101322.47;5099021;27;46458;-79
2023/01/12 06:16:07;;;;;;;;;2.67;2.33;;;;;12.88;100.00;101311.22;5094841;27;45215;-80
2023/01/12 06:18:34;;;;;;;;;2.00;2.00;;;;;12.87;100.00;101314.09;5079658;27;45431;-79
2023/01/12 06:21:00;;;;;;;;;4.00;2.67;;;;;12.79;100.00;101305.78;5096777;27;46163;-80
2023/01/12 06:23:25;;;;;;;;;1.00;1.00;;;;;12.74;100.00;101308.97;5092460;27;45310;-79
2023/01/12 06:25:51;;;;;;;;;2.00;2.00;;;;;12.77;100.00;101316.00;5092091;27;45395;-80
2023/01/12 06:28:16;;;;;;;;;0.67;0.67;;;;;12.76;100.00;101322.47;5081145;27;45386;-79
2023/01/12 06:30:42;;;;;;;;;3.33;2.33;;;;;12.87;100.00;101322.28;5072640;27;47298;-80
2023/01/12 06:33:07;;;;;;;;;2.67;1.33;;;;;12.74;100.00;101329.94;5099554;27;45425;-79
2023/01/12 06:35:32;;;;;;;;;3.00;1.67;;;;;12.84;100.00;101322.59;5096355;27;45303;-79
2023/01/12 06:37:58;;;;;;;;;4.00;3.33;;;;;12.79;100.00;101333.06;5084389;27;45324;-79
2023/01/12 06:40:23;;;;;;;;;4.00;3.00;;;;;12.82;100.00;101332.78;5084006;27;47887;-79
2023/01/12 06:42:48;;;;;;;;;1.00;1.00;;;;;12.81;100.00;101334.63;5101413;27;45310;-79
2023/01/12 06:45:14;;;;;;;;;4.33;2.00;;;;;12.75;100.00;101313.44;5082275;27;45586;-78
2023/01/12 06:47:48;;;;;;;;;4.33;1.00;;;;;12.83;100.00;101331.78;5101100;27;45349;-77
2023/01/12 06:50:14;;;;;;;;;7.00;4.00;;;;;12.84;100.00;101333.50;5080833;27;47065;-79
2023/01/12 06:52:40;;;;;;;;;2.67;2.00;;;;;12.88;100.00;101326.72;5102567;27;45299;-79
2023/01/12 06:55:05;;;;;;;;;4.00;1.67;;;;;12.90;100.00;101326.56;5101828;27;45539;-79
2023/01/12 06:57:31;;;;;;;;;4.67;1.67;;;;;12.95;100.00;101327.84;5103334;27;45597;-81
2023/01/12 06:59:56;;;;;;;;;3.00;3.00;;;;;12.96;100.00;101328.69;5094286;27;46573;-78
2023/01/12 07:02:22;;;;;;;;;1.00;1.00;;;;;12.96;100.00;101323.25;5099270;27;45330;-79
2023/01/12 07:04:47;;;;;;;;;3.33;1.33;;;;;12.87;100.00;101325.88;5091470;27;45310;-80
2023/01/12 07:07:13;;;;;;;;;3.67;3.00;;;;;12.89;100.00;101312.09;5097723;27;45387;-79
2023/01/12 07:09:38;;;;;;;;;4.00;3.00;;;;;12.98;100.00;101313.06;5092141;27;48366;-82
2023/01/12 07:12:04;;;;;;;;;5.33;4.00;;;;;12.95;100.00;101306.03;5096659;27;45368;-79
2023/01/12 07:14:30;;;;;;;;;4.00;0.33;;;;;12.98;100.00;101318.50;5084520;27;45362;-80
2023/01/12 07:16:55;;;;;;;;;4.33;1.00;;;;;12.83;100.00;101305.38;5071751;28;45413;-79
2023/01/12 07:19:20;;;;;;;;;1.00;1.00;;;;;12.98;100.00;101299.41;5075580;27;47216;-79
2023/01/12 07:21:51;;;;;;;;;0.67;0.67;;;;;13.12;100.00;101302.50;5089472;27;45525;-77
2023/01/12 07:24:16;;;;;;;;;2.00;2.00;;;;;13.05;100.00;101316.91;5093197;27;45455;-77
2023/01/12 07:26:42;;;;;;;;;3.33;1.00;;;;;13.11;100.00;101317.16;5090453;27;45560;-79
2023/01/12 07:29:10;;;;;;;;;3.33;2.00;;;;;13.13;100.00;101309.72;5089689;27;46598;-79
2023/01/12 07:31:35;;;;;;;;;3.33;2.00;;;;;13.17;100.00;101315.72;5093352;27;46329;-80
2023/01/12 07:34:01;;;;;;;;;2.00;1.00;;;;;13.06;100.00;101314.03;5099325;27;45546;-79
2023/01/12 07:36:26;;;;;;;;;1.33;1.00;;;;;13.10;100.00;101330.94;5076096;27;45396;-78
2023/01/12 07:38:51;;;;;;;;;1.00;1.00;;;;;13.12;100.00;101318.00;5081706;27;47195;-81
2023/01/12 07:44:01;;;;;;;;;2.00;2.00;;;;;13.15;100.00;101312.31;5089393;27;45473;-80
2023/01/12 07:46:26;;;;;;;;;4.00;1.00;;;;;12.94;100.00;101320.66;5092957;27;45669;-80
2023/01/12 07:48:51;;;;;;;;;1.67;1.67;;;;;13.14;100.00;101308.72;5089922;27;46183;-82
2023/01/12 07:51:17;;;;;;;;;4.67;2.00;;;;;13.16;100.00;101303.06;5099691;27;45444;-79
2023/01/12 07:53:42;;;;;;;;;2.00;1.00;;;;;13.13;100.00;101295.22;5094857;27;45342;-79
2023/01/12 07:56:08;;;;;;;;;1.67;1.67;;;;;13.16;100.00;101300.34;5093740;27;45360;-81
2023/01/12 07:58:36;;;;;;;;;2.00;2.00;;;;;13.14;100.00;101305.97;5101992;27;45526;-78
2023/01/12 08:01:01;;;;;;;;;4.00;3.00;;;;;12.97;100.00;101314.94;5079969;27;45206;-82
2023/01/12 08:03:27;;;;;;;;;1.33;1.00;;;;;13.11;100.00;101317.16;5100696;27;45303;-79
2023/01/12 08:05:54;;;;;;;;;5.33;2.00;;;;;13.19;100.00;101309.09;5077537;27;45266;-81
2023/01/12 08:08:20;;;;;;;;;1.00;1.00;;;;;13.22;100.00;101319.69;5085255;27;46071;-79
2023/01/12 08:10:48;;;;;;;;;6.33;2.00;;;;;13.22;100.00;101316.13;5081729;27;45368;-78
2023/01/12 08:13:14;;;;;;;;;1.00;0.67;;;;;13.28;100.00;101322.84;5102082;27;45321;-80
2023/01/12 08:15:46;;;;;;;;;2.00;0.33;;;;;13.28;100.00;101307.34;5074165;27;46091;-79
2023/01/12 08:18:19;;;;;;;;;1.00;0.67;;;;;13.36;100.00;101309.31;5080788;27;47235;-80
2023/01/12 08:20:46;;;;;;;;;2.67;1.00;;;;;13.35;100.00;101304.84;5081503;27;45941;-80
2023/01/12 08:23:24;;;;;;;;;1.67;1.00;;;;;13.30;100.00;101315.34;5099066;27;45389;-82
2023/01/12 08:25:55;;;;;;;;;3.00;1.00;;;;;13.43;100.00;101313.16;5097017;27;45467;-79
2023/01/12 08:28:42;;;;;;;;;4.33;1.00;;;;;13.42;100.00;101314.16;5094175;27;46183;-79
2023/01/12 08:31:12;;;;;;;;;1.00;1.00;;;;;13.40;100.00;101325.22;5079207;27;45626;-79
2023/01/12 08:33:39;;;;;;;;;2.00;2.00;;;;;13.48;100.00;101324.44;5096509;27;45274;-81
2023/01/12 08:36:09;;;;;;;;;3.00;1.00;;;;;13.56;100.00;101322.69;5080746;27;45544;-80
2023/01/12 08:38:35;;;;;;;;;3.33;1.00;;;;;13.55;100.00;101318.22;5091379;27;45525;-79
2023/01/12 08:46:35;;;;;;;;;1.00;1.00;;;;;13.51;100.00;101324.16;5101189;27;45290;-77
2023/01/12 08:49:03;;;;;;;;;3.00;2.00;;;;;13.47;100.00;101320.00;5079878;27;45623;-78
2023/01/12 08:51:29;;;;;;;;;2.33;1.00;;;;;13.46;100.00;101321.00;5083683;27;45535;-79
2023/01/12 08:53:54;;;;;;;;;2.00;2.00;;;;;13.39;100.00;101323.50;5083058;27;45436;-79
2023/01/12 08:56:20;;;;;;;;;3.00;2.00;;;;;13.42;100.00;101309.56;5078092;27;45579;-79
2023/01/12 08:58:46;;;;;;;;;4.00;1.33;;;;;13.53;100.00;101312.06;5097310;27;46154;-80
2023/01/12 09:01:14;;;;;;;;;0.33;0.33;;;;;13.47;100.00;101318.13;5080677;27;45658;-78
2023/01/12 09:03:39;;;;;;;;;1.67;0.67;;;;;13.56;100.00;101308.16;5086324;27;45430;-79
2023/01/12 09:06:33;;;;;;;;;0.33;0.33;;;;;13.56;100.00;101316.34;5094178;27;45500;-78
2023/01/12 09:09:01;;;;;;;;;18.00;15.67;;;;;13.61;100.00;101325.78;5081700;27;47781;-79
2023/01/12 09:11:28;;;;;;;;;2.00;0.67;;;;;13.52;100.00;101309.47;5075944;27;45610;-78
2023/01/12 09:13:57;;;;;;;;;3.00;1.00;;;;;13.43;100.00;101313.16;5102261;27;45240;-79
2023/01/12 09:16:25;;;;;;;;;3.00;1.33;;;;;13.44;100.00;101314.88;5083267;27;45542;-78
2023/01/12 09:18:50;;;;;;;;;2.33;1.67;;;;;13.47;100.00;101318.13;5088933;27;47358;-79
2023/01/12 09:21:19;;;;;;;;;1.00;0.00;;;;;13.54;100.00;101324.69;5082524;27;45204;-79
2023/01/12 09:23:45;;;;;;;;;5.33;2.67;;;;;13.58;100.00;101322.53;5096192;27;45267;-77
2023/01/12 09:26:13;;;;;;;;;2.33;1.00;;;;;13.60;100.00;101324.06;5097395;27;45214;-78
2023/01/12 09:28:41;;;;;;;;;3.33;1.00;;;;;13.57;100.00;101321.66;5076578;27;45464;-78
2023/01/12 09:31:07;;;;;;;;;0.00;0.00;;;;;13.53;100.00;101319.38;5096164;27;45398;-78
2023/01/12 09:33:34;;;;;;;;;0.00;0.00;;;;;13.35;100.00;101322.09;5087242;27;45357;-78
2023/01/12 09:36:05;;;;;;;;;1.67;1.67;;;;;13.50;100.00;101330.63;5098946;27;45639;-78
2023/01/12 09:38:31;;;;;;;;;2.67;2.00;;;;;13.55;100.00;101333.75;5096467;27;46452;-77
2023/01/12 09:41:00;;;;;;;;;1.00;1.00;;;;;13.60;100.00;101332.25;5097421;27;45443;-78
2023/01/12 09:49:02;;;;;;;;;1.00;1.00;;;;;13.68;100.00;101334.22;5098165;27;45327;-79
2023/01/12 09:51:38;;;;;;;;;5.67;2.33;;;;;13.68;100.00;101336.97;5077064;27;45310;-78
2023/01/12 09:54:05;;;;;;;;;3.33;3.33;;;;;13.62;100.00;101332.13;5092185;27;45427;-78
2023/01/12 09:56:40;;;;;;;;;2.33;1.67;;;;;13.49;100.00;101340.69;5096481;27;45515;-78
2023/01/12 09:59:20;;;;;;;;;5.00;3.00;;;;;13.55;100.00;101344.66;5079994;27;47111;-80
2023/01/12 10:01:46;;;;;;;;;3.00;2.33;;;;;13.57;100.00;101345.38;5096734;27;45295;-79
2023/01/12 10:04:12;;;;;;;;;1.00;1.00;;;;;13.53;100.00;101344.81;5092771;27;45485;-78
2023/01/12 10:06:38;;;;;;;;;4.00;2.00;;;;;13.62;100.00;101348.50;5078158;27;45577;-81
2023/01/12 10:09:13;;;;;;;;;3.00;2.67;;;;;13.67;100.00;101356.22;5105101;27;45317;-82
2023/01/12 10:11:45;;;;;;;;;2.67;2.00;;;;;13.73;100.00;101358.38;5096037;27;45446;-80
2023/01/12 10:14:24;;;;;;;;;3.67;3.00;;;;;13.74;100.00;101352.72;5083790;27;45490;-81
2023/01/12 10:17:24;;;;;;;;;1.67;0.67;;;;;13.81;100.00;101355.69;5078810;27;45404;-82
2023/01/12 10:19:55;;;;;;;;;4.00;3.67;;;;;13.81;100.00;101342.91;5095537;27;47083;-81
2023/01/12 10:22:36;;;;;;;;;1.00;1.00;;;;;13.76;100.00;101356.16;5101974;27;45323;-80
2023/01/12 10:25:40;;;;;;;;;1.00;1.00;;;;;13.82;100.00;101361.00;5101160;27;45317;-82
2023/01/12 10:28:20;;;;;;;;;0.33;0.33;;;;;13.86;100.00;101353.38;5082316;27;45435;-84
2023/01/12 10:30:45;;;;;;;;;13.67;12.33;;;;;13.89;100.00;101342.97;5096516;27;46851;-83
2023/01/12 10:33:17;;;;;;;;;2.33;1.00;;;;;13.91;100.00;101348.28;5076945;27;45237;-83
2023/01/12 10:36:14;;;;;;;;;4.00;2.00;;;;;13.99;100.00;101332.00;5080424;27;45546;-79
2023/01/12 10:38:59;;;;;;;;;2.67;2.00;;;;;14.07;100.00;101337.53;5091606;27;45325;-84
2023/01/12 10:41:36;;;;;;;;;1.00;1.00;;;;;13.80;100.00;101324.81;5083185;27;46580;-82
2023/01/12 10:44:01;;;;;;;;;2.33;1.00;;;;;13.63;100.00;101340.16;5104181;27;45295;-83
2023/01/12 10:46:34;;;;;;;;;2.33;2.33;;;;;13.81;100.00;101342.91;5093035;27;45502;-82
2023/01/12 10:49:20;;;;;;;;;3.33;3.00;;;;;13.86;100.00;101324.19;5084701;27;45595;-81
2023/01/12 10:52:07;;;;;;;;;2.00;0.67;;;;;13.82;100.00;101324.63;5099537;27;45686;-81
2023/01/12 10:54:36;;;;;;;;;4.00;1.00;;;;;13.71;100.00;101333.06;5099487;27;45665;-79
2023/01/12 10:57:01;;;;;;;;;4.67;2.00;;;;;13.76;100.00;101328.00;5078890;27;45531;-82
2023/01/12 10:59:30;;;;;;;;;3.33;2.00;;;;;13.88;100.00;101327.59;5083020;28;45535;-81
2023/01/12 11:02:05;;;;;;;;;3.00;2.00;;;;;13.87;100.00;101317.72;5093304;27;45422;-80
2023/01/12 11:04:40;;;;;;;;;2.67;2.33;;;;;13.69;100.00;101303.19;5082836;27;45351;-80
2023/01/12 11:07:11;;;;;;;;;3.67;3.00;;;;;13.79;100.00;101319.50;5084132;27;45462;-80
2023/01/12 11:09:37;;;;;;;;;2.67;2.33;;;;;13.82;100.00;101314.56;5081941;27;45550;-80
2023/01/12 11:12:18;;;;;;;;;2.67;2.00;;;;;13.72;100.00;101318.41;5075215;27;46570;-80
2023/01/12 11:15:13;;;;;;;;;3.33;1.00;;;;;13.67;100.00;101313.38;5096263;27;45412;-80
2023/01/12 11:17:42;;;;;;;;;1.00;1.00;;;;;13.70;100.00;101312.22;5083883;27;45510;-80
2023/01/12 11:20:31;;;;;;;;;5.33;3.67;;;;;13.68;100.00;101290.53;5098734;27;45505;-81
2023/01/12 11:23:01;;;;;;;;;5.67;3.00;;;;;13.86;100.00;101294.16;5092901;27;45184;-81
2023/01/12 11:25:48;;;;;;;;;4.00;2.67;;;;;13.85;100.00;101295.16;5094893;27;45663;-79
2023/01/12 11:28:37;;;;;;;;;5.00;5.00;;;;;13.84;100.00;101293.44;5073484;28;45393;-81
2023/01/12 11:31:11;;;;;;;;;5.67;3.67;;;;;13.90;100.00;101290.06;5090467;27;45500;-80
2023/01/12 11:33:44;;;;;;;;;6.00;4.67;;;;;13.91;100.00;101285.47;5079805;27;48401;-82
2023/01/12 11:36:25;;;;;;;;;4.67;4.33;;;;;13.79;100.00;101293.06;5092214;27;45676;-80
2023/01/12 11:38:59;;;;;;;;;7.00;3.00;;;;;13.90;100.00;101281.88;5101398;27;45339;-80
2023/01/12 11:41:36;;;;;;;;;2.67;2.67;;;;;13.99;100.00;101275.47;5095076;27;45471;-83
2023/01/12 11:44:24;;;;;;;;;4.33;3.00;;;;;14.11;100.00;101286.16;5082199;27;46798;-81
2023/01/12 11:46:58;;;;;;;;;6.00;3.00;;;;;14.07;100.00;101288.34;5084293;27;45338;-79
2023/01/12 11:49:32;;;;;;;;;2.00;2.00;;;;;14.09;100.00;101297.25;5071107;28;46465;-78
2023/01/12 11:52:01;;;;;;;;;5.00;5.00;;;;;14.09;100.00;101274.53;5081551;27;45384;-81
2023/01/12 11:54:28;;;;;;;;;5.00;3.33;;;;;14.13;100.00;101274.06;5082016;27;45849;-84
2023/01/12 11:57:09;;;;;;;;;3.00;3.00;;;;;14.07;100.00;101285.63;5094218;27;45411;-82
2023/01/12 12:00:12;;;;;;;;;3.00;1.67;;;;;14.08;100.00;101278.28;5098137;27;45235;-82
2023/01/12 12:02:45;;;;;;;;;3.67;3.67;;;;;14.17;100.00;101271.88;5078983;27;45646;-82
2023/01/12 12:05:28;;;;;;;;;6.33;5.00;;;;;14.19;100.00;101270.69;5096111;27;46710;-82